Oshoto, Wyoming
Current Conditions -  °F | °C
As of 12:53 PM on Monday 22 Dec 2014 (Local Time) from KGCC Reporting Station
Broken Clouds Broken Clouds  
Wind Chill: 24°   Ceiling: 10000
Heat Index: 37°   Visibility: 10mi
Dew Point: 24°   Wind: 30mph
Humidity: 59%   Direction: 310°NW
Pressure: 29.67"   Gusts: 37mph
Location:  44.3253°N, 104.815°W
Report Text: KGCC 221953Z AUTO 31026G32KT 10SM FEW075 BKN100 03/M04 A2967 RMK AO2 PK WND 32034/1859 SLP062 T00281044 TSNO
Loading
Personal Weather Stations






























Interactive Weather Map New forecast layout! Learn more

10-Day Weather Forecast

Advertisements
Track Severe Weather on mobile